Sultan Mahmud Badaruddin Ii Airport
WIPP : now visible

Airfield :











YOU CAN JOIN US ON...

 
LOGIN :

Register | Disclaimer

   EN    FR    IT 

 









Legend :    VFR   Marginal VFR   IFR   Intensive IFR   Very Intensive IFR
Visi :
Ceiling :
>= 8 km
>= 3000ft
5 to 8 km
1000 to 3000 ft
1500m to 5 km
500 to 1000 ft
800 to 1500m
200 to 500 ft
< 800m
< 200 ft
Symbols :   Thunderstorms  Fog  Heavy snow  Heavy precipitations  Wind > 20 kt






- Airport Elevation : 49 ft
- IATA code : PLM


WIPP - Sultan Mahmud Badaruddin Ii

CURRENT METAR :
  • 032100Z 00000KT 4000 HZ SCT010 25/24 Q1007

EXPIRED METARs :
  • 032030Z 00000KT 6000 FEW010 26/24 Q1007 NOSIG
  • 032000Z 36003KT 8000 FEW010 26/24 Q1007 NOSIG
  • 031930Z 00000KT 9999 FEW010 26/24 Q1007 NOSIG
  • 031830Z 13003KT 9999 FEW010 26/24 Q1007 NOSIG

TAF TAF WIPP
Valid from the 03 at 18:00 until the 04 at 18:00 UTC


031700Z 0318/0418 12005KT 9999 SCT010
TEMPO 0321/0324 3000 BR
WIIF FIR / Asia



MET'MAP, your aeronautical weather chart ! - Copyright ORBIFLY December 2007 - Disclaimer

ORBIFLY MET'MAP TEAM :

Programming & Development : Alexandra Zaïnal
Original concept : Baudouin d'Aumeries
Technical & hardware support : Manuel Goepfert
Assistance : Marc-Olivier Méhu




SOURCES & CREDITS :

   NOAA       Earth
Advisory